createdAt,value
2022-11-08T00:00:44.051Z,2.60
2022-11-08T00:03:13.493Z,1.60
2022-11-08T00:06:00.005Z,2.00
2022-11-08T00:08:46.958Z,1.40
2022-11-08T00:11:39.001Z,2.27
2022-11-08T00:14:08.992Z,2.47
2022-11-08T00:16:38.189Z,2.10
2022-11-08T00:19:07.611Z,1.63
2022-11-08T00:21:35.888Z,1.80
2022-11-08T00:24:03.938Z,2.20
2022-11-08T00:26:32.057Z,1.80
2022-11-08T00:29:01.633Z,1.70
2022-11-08T00:31:32.583Z,1.40
2022-11-08T00:34:00.624Z,2.30
2022-11-08T00:36:35.012Z,2.27
2022-11-08T00:39:03.605Z,1.40
2022-11-08T00:41:32.426Z,2.23
2022-11-08T00:44:00.590Z,1.93
2022-11-08T00:46:30.353Z,1.87
2022-11-08T00:49:01.444Z,1.93
2022-11-08T00:51:31.056Z,1.83
2022-11-08T00:53:59.143Z,2.27
2022-11-08T00:56:28.344Z,1.60
2022-11-08T00:58:57.609Z,1.70
2022-11-08T01:01:26.308Z,1.70
2022-11-08T01:03:54.823Z,1.50
2022-11-08T01:06:24.763Z,2.90
2022-11-08T01:08:55.912Z,1.60
2022-11-08T01:11:25.350Z,1.60
2022-11-08T01:13:56.805Z,1.40
2022-11-08T01:16:26.876Z,2.70
2022-11-08T01:18:56.814Z,1.93
2022-11-08T01:21:26.577Z,2.10
2022-11-08T01:23:56.180Z,1.37
2022-11-08T01:26:26.507Z,1.67
2022-11-08T01:28:54.995Z,3.00
2022-11-08T01:31:24.602Z,2.10
2022-11-08T01:33:52.610Z,1.83
2022-11-08T01:36:22.974Z,1.60
2022-11-08T01:38:51.584Z,2.23
2022-11-08T01:41:22.982Z,2.40
2022-11-08T01:43:52.375Z,1.50
2022-11-08T01:46:42.713Z,1.70
2022-11-08T01:49:52.718Z,2.00
2022-11-08T01:52:30.463Z,1.40
2022-11-08T01:55:14.356Z,2.07
2022-11-08T01:57:50.234Z,1.63
2022-11-08T02:00:19.341Z,1.60
2022-11-08T02:02:50.937Z,3.10
2022-11-08T02:05:26.659Z,1.73
2022-11-08T02:08:03.346Z,4.30
2022-11-08T02:10:35.643Z,1.60
2022-11-08T02:13:13.344Z,2.10
2022-11-08T02:15:43.231Z,2.00
2022-11-08T02:18:11.757Z,1.70
2022-11-08T02:20:42.331Z,1.37
2022-11-08T02:23:16.438Z,1.50
2022-11-08T02:25:45.926Z,2.00
2022-11-08T02:28:14.301Z,1.50
2022-11-08T02:30:42.497Z,1.60
2022-11-08T02:33:18.221Z,1.30
2022-11-08T02:35:50.466Z,2.20
2022-11-08T02:38:19.332Z,1.20
2022-11-08T02:40:50.288Z,2.93
2022-11-08T02:43:18.395Z,1.60
2022-11-08T02:45:46.767Z,1.50
2022-11-08T02:48:17.775Z,1.40
2022-11-08T02:50:46.477Z,1.70
2022-11-08T02:53:14.755Z,2.33
2022-11-08T02:55:43.076Z,1.80
2022-11-08T02:58:13.054Z,1.40
2022-11-08T03:00:41.343Z,1.40
2022-11-08T03:03:09.470Z,1.40
2022-11-08T03:05:37.550Z,2.17
2022-11-08T03:08:05.981Z,1.30
2022-11-08T03:10:34.057Z,1.37
2022-11-08T03:13:03.974Z,1.33
2022-11-08T03:15:34.112Z,1.57
2022-11-08T03:18:02.563Z,1.37
2022-11-08T03:20:33.216Z,1.43
2022-11-08T03:23:03.298Z,1.40
2022-11-08T03:25:31.844Z,1.20
2022-11-08T03:28:03.896Z,1.40
2022-11-08T03:30:33.611Z,1.90
2022-11-08T03:33:01.856Z,2.67
2022-11-08T03:35:29.904Z,1.40
2022-11-08T03:37:58.781Z,1.30
2022-11-08T03:40:27.453Z,1.70
2022-11-08T03:42:57.295Z,1.30
2022-11-08T03:45:25.298Z,1.40
2022-11-08T03:47:54.699Z,1.40
2022-11-08T03:50:22.759Z,1.90
2022-11-08T03:52:52.309Z,1.63
2022-11-08T03:55:22.861Z,1.50
2022-11-08T03:57:51.942Z,1.57
2022-11-08T04:00:21.925Z,2.37
2022-11-08T04:02:50.302Z,1.83
2022-11-08T04:05:20.129Z,1.63
2022-11-08T04:07:48.999Z,1.67
2022-11-08T04:10:17.933Z,1.37
2022-11-08T04:13:03.705Z,1.50
2022-11-08T04:15:32.549Z,1.50
2022-11-08T04:18:18.378Z,1.50
2022-11-08T04:21:07.026Z,2.03
2022-11-08T04:23:37.296Z,1.50
2022-11-08T04:26:07.390Z,1.60
2022-11-08T04:28:37.507Z,1.70
2022-11-08T04:31:08.664Z,1.70
2022-11-08T04:33:37.137Z,1.60
2022-11-08T04:36:09.308Z,1.60
2022-11-08T04:38:37.460Z,2.37
2022-11-08T04:41:07.193Z,1.77
2022-11-08T04:43:35.622Z,1.67
2022-11-08T04:46:05.739Z,1.50
2022-11-08T04:48:34.136Z,2.00
2022-11-08T04:51:08.882Z,1.50
2022-11-08T04:53:36.913Z,1.60
2022-11-08T04:56:06.980Z,1.53
2022-11-08T04:58:36.300Z,1.70
2022-11-08T05:01:06.044Z,1.60
2022-11-08T05:03:34.246Z,1.97
2022-11-08T05:06:03.268Z,1.50
2022-11-08T05:08:32.741Z,1.70
2022-11-08T05:11:05.125Z,1.53
2022-11-08T05:13:33.567Z,4.23
2022-11-08T05:16:02.645Z,1.50
2022-11-08T05:18:31.203Z,1.50
2022-11-08T05:21:14.555Z,2.70
2022-11-08T05:23:44.288Z,1.43
2022-11-08T05:26:12.653Z,1.40
2022-11-08T05:28:41.376Z,1.40
2022-11-08T05:31:10.088Z,3.43
2022-11-08T05:33:38.435Z,1.60
2022-11-08T05:36:08.409Z,2.03
2022-11-08T05:38:36.475Z,1.50
2022-11-08T05:41:07.237Z,1.70
2022-11-08T05:43:35.500Z,1.50
2022-11-08T05:46:03.616Z,1.40
2022-11-08T05:48:31.900Z,3.40
2022-11-08T05:51:00.107Z,1.63
2022-11-08T05:53:28.352Z,2.03
2022-11-08T05:55:59.639Z,1.60
2022-11-08T05:58:30.131Z,2.80
2022-11-08T06:01:02.289Z,1.80
2022-11-08T06:03:31.063Z,1.93
2022-11-08T06:06:03.364Z,2.00
2022-11-08T06:08:31.655Z,1.87
2022-11-08T06:11:04.623Z,1.50
2022-11-08T06:13:34.630Z,2.00
2022-11-08T06:16:03.830Z,1.50
2022-11-08T06:18:33.055Z,1.60
2022-11-08T06:21:01.796Z,2.23
2022-11-08T06:23:30.161Z,1.60
2022-11-08T06:25:58.674Z,1.53
2022-11-08T06:28:27.291Z,1.70
2022-11-08T06:30:59.120Z,1.80
2022-11-08T06:33:27.186Z,1.90
2022-11-08T06:35:55.622Z,1.80
2022-11-08T06:38:23.674Z,1.60
2022-11-08T06:40:51.675Z,1.80
2022-11-08T06:43:20.396Z,1.60
2022-11-08T06:45:48.815Z,1.40
2022-11-08T06:48:18.188Z,1.77
2022-11-08T06:50:46.236Z,1.77
2022-11-08T06:53:15.463Z,1.70
2022-11-08T06:55:43.772Z,1.50
2022-11-08T06:58:12.690Z,1.50
2022-11-08T07:00:40.686Z,1.43
2022-11-08T07:03:08.757Z,1.67
2022-11-08T07:05:38.269Z,1.97
2022-11-08T07:08:06.753Z,1.40
2022-11-08T07:10:36.464Z,1.70
2022-11-08T07:13:06.892Z,1.40
2022-11-08T07:15:36.706Z,1.60
2022-11-08T07:18:06.338Z,1.50
2022-11-08T07:20:34.931Z,1.70
2022-11-08T07:23:04.714Z,1.50
2022-11-08T07:25:33.132Z,1.50
2022-11-08T07:28:03.037Z,1.67
2022-11-08T07:30:32.324Z,2.40
2022-11-08T07:33:00.598Z,1.53
2022-11-08T07:35:29.170Z,1.60
2022-11-08T07:37:58.276Z,1.70
2022-11-08T07:40:27.970Z,1.90
2022-11-08T07:43:14.731Z,2.53
2022-11-08T07:45:43.465Z,1.50
2022-11-08T07:48:13.620Z,1.70
2022-11-08T07:50:42.940Z,1.53
2022-11-08T07:53:11.780Z,2.30
2022-11-08T07:55:41.958Z,1.50
2022-11-08T07:58:11.682Z,1.50
2022-11-08T08:00:41.851Z,1.53
2022-11-08T08:03:11.632Z,1.50
2022-11-08T08:05:42.195Z,1.60
2022-11-08T08:08:11.095Z,1.40
2022-11-08T08:10:41.227Z,1.70
2022-11-08T08:13:10.155Z,1.50
2022-11-08T08:15:38.398Z,1.70
2022-11-08T08:18:08.581Z,1.30
2022-11-08T08:20:38.442Z,1.60
2022-11-08T08:23:07.103Z,1.43
2022-11-08T08:25:35.650Z,1.37
2022-11-08T08:28:06.092Z,1.40
2022-11-08T08:30:34.489Z,2.90
2022-11-08T08:35:54.348Z,1.30
2022-11-08T08:38:22.883Z,1.53
2022-11-08T08:40:51.679Z,2.37
2022-11-08T08:43:21.914Z,1.50
2022-11-08T08:45:50.526Z,1.90
2022-11-08T08:48:18.845Z,1.53
2022-11-08T08:50:46.973Z,1.70
2022-11-08T08:53:15.231Z,3.10
2022-11-08T08:55:43.540Z,1.70
2022-11-08T08:58:12.050Z,1.87
2022-11-08T09:03:29.593Z,2.53
2022-11-08T09:05:58.967Z,2.83
2022-11-08T09:08:27.391Z,2.10
2022-11-08T09:10:56.251Z,2.70
2022-11-08T09:13:26.164Z,2.37
2022-11-08T09:15:56.187Z,2.50
2022-11-08T09:18:24.438Z,1.70
2022-11-08T09:20:52.515Z,2.97
2022-11-08T09:23:20.943Z,2.57
2022-11-08T09:25:49.321Z,3.00
2022-11-08T09:28:18.853Z,3.67
2022-11-08T09:30:46.942Z,2.37
2022-11-08T09:33:16.640Z,2.87
2022-11-08T09:35:46.305Z,2.53
2022-11-08T09:38:14.638Z,3.00
2022-11-08T09:40:51.056Z,2.50
2022-11-08T09:43:39.401Z,3.83
2022-11-08T09:46:10.580Z,2.83
2022-11-08T09:48:43.697Z,3.00
2022-11-08T09:51:15.413Z,2.10
2022-11-08T09:53:49.329Z,2.50
2022-11-08T09:56:23.578Z,3.43
2022-11-08T09:58:55.353Z,3.20
2022-11-08T10:01:27.151Z,2.70
2022-11-08T10:03:59.922Z,2.67
2022-11-08T10:06:48.164Z,2.27
2022-11-08T10:09:31.683Z,2.30
2022-11-08T10:12:10.645Z,2.70
2022-11-08T10:14:54.153Z,2.43
2022-11-08T10:17:46.162Z,2.67
2022-11-08T10:20:24.582Z,2.90
2022-11-08T10:23:00.376Z,3.07
2022-11-08T10:25:35.421Z,2.43
2022-11-08T10:28:29.401Z,2.20
2022-11-08T10:30:57.931Z,2.77
2022-11-08T10:33:34.893Z,2.40
2022-11-08T10:36:10.746Z,2.97
2022-11-08T10:38:50.345Z,2.50
2022-11-08T10:41:24.760Z,3.20
2022-11-08T10:43:59.222Z,2.47
2022-11-08T10:46:41.654Z,2.87
2022-11-08T10:49:20.669Z,3.13
2022-11-08T10:51:51.957Z,2.97
2022-11-08T10:54:49.345Z,3.13
2022-11-08T10:57:23.665Z,8.33
2022-11-08T10:59:52.923Z,3.50
2022-11-08T11:02:29.701Z,2.47
2022-11-08T11:05:30.004Z,2.63
2022-11-08T11:08:05.699Z,2.97
2022-11-08T11:10:35.488Z,3.27
2022-11-08T11:13:06.825Z,2.90
2022-11-08T11:15:37.398Z,3.63
2022-11-08T11:18:06.794Z,2.53
2022-11-08T11:20:35.086Z,3.00
2022-11-08T11:23:04.796Z,3.00
2022-11-08T11:25:33.146Z,2.37
2022-11-08T11:28:01.702Z,2.77
2022-11-08T11:30:32.708Z,2.87
2022-11-08T11:33:07.217Z,2.37
2022-11-08T11:35:49.101Z,2.53
2022-11-08T11:38:38.901Z,3.10
2022-11-08T11:41:14.407Z,2.77
2022-11-08T11:43:48.139Z,3.00
2022-11-08T11:46:23.794Z,2.40
2022-11-08T11:49:01.481Z,2.63
2022-11-08T11:51:31.285Z,3.00
2022-11-08T11:54:04.076Z,2.27
2022-11-08T11:56:44.999Z,2.77
2022-11-08T11:59:46.646Z,2.70
2022-11-08T12:02:45.669Z,3.17
2022-11-08T12:05:28.975Z,2.27
2022-11-08T12:08:18.740Z,2.50
2022-11-08T12:11:05.944Z,2.83
2022-11-08T12:13:51.519Z,2.30
2022-11-08T12:16:28.456Z,2.80
2022-11-08T12:19:16.995Z,2.67
2022-11-08T12:21:54.889Z,2.17
2022-11-08T12:24:45.890Z,2.60
2022-11-08T12:27:25.240Z,2.70
2022-11-08T12:30:03.316Z,2.33
2022-11-08T12:33:00.846Z,2.30
2022-11-08T12:35:38.837Z,2.63
2022-11-08T12:38:19.394Z,2.50
2022-11-08T12:40:55.392Z,4.30
2022-11-08T12:43:38.837Z,4.60
2022-11-08T12:46:12.997Z,3.90
2022-11-08T12:49:07.298Z,2.77
2022-11-08T12:51:48.558Z,2.97
2022-11-08T12:54:23.864Z,2.53
2022-11-08T12:56:55.685Z,2.90
2022-11-08T12:59:29.585Z,2.90
2022-11-08T13:01:58.976Z,3.00
2022-11-08T13:04:46.628Z,2.57
2022-11-08T13:07:25.667Z,2.70
2022-11-08T13:09:59.264Z,2.30
2022-11-08T13:12:39.715Z,2.80
2022-11-08T13:15:16.321Z,2.70
2022-11-08T13:18:23.570Z,2.10
2022-11-08T13:20:51.747Z,2.10
2022-11-08T13:23:26.499Z,2.37
2022-11-08T13:25:55.307Z,2.47
2022-11-08T13:28:43.192Z,1.90
2022-11-08T13:31:31.484Z,2.70
2022-11-08T13:34:17.996Z,2.57
2022-11-08T13:37:01.170Z,2.60
2022-11-08T13:39:57.110Z,2.37
2022-11-08T13:42:59.992Z,2.17
2022-11-08T13:45:31.858Z,2.20
2022-11-08T13:48:03.740Z,1.97
2022-11-08T13:50:49.680Z,2.23
2022-11-08T13:53:57.767Z,2.20
2022-11-08T13:56:48.181Z,2.30
2022-11-08T13:59:58.733Z,2.10
2022-11-08T14:02:42.772Z,2.30
2022-11-08T14:05:44.174Z,2.10
2022-11-08T14:08:23.914Z,2.60
2022-11-08T14:11:25.400Z,1.93
2022-11-08T14:14:16.272Z,1.90
2022-11-08T14:16:58.035Z,2.10
2022-11-08T14:19:28.038Z,2.20
2022-11-08T14:21:59.795Z,1.90
2022-11-08T14:24:30.120Z,2.20
2022-11-08T14:26:58.242Z,2.43
2022-11-08T14:29:26.622Z,1.83
2022-11-08T14:32:06.287Z,2.00
2022-11-08T14:34:36.588Z,3.38
2022-11-08T14:37:12.338Z,2.25
2022-11-08T14:39:40.376Z,2.42
2022-11-08T14:42:23.573Z,2.67
2022-11-08T14:44:55.015Z,2.20
2022-11-08T14:47:30.236Z,2.30
2022-11-08T14:49:59.256Z,2.33
2022-11-08T14:52:31.211Z,2.07
2022-11-08T14:55:05.639Z,1.90
2022-11-08T14:57:37.388Z,3.60
2022-11-08T15:00:14.645Z,2.27
2022-11-08T15:02:45.561Z,3.63
2022-11-08T15:05:37.688Z,3.87
2022-11-08T15:08:16.547Z,3.17
2022-11-08T15:10:54.928Z,2.77
2022-11-08T15:13:23.201Z,2.50
2022-11-08T15:15:55.354Z,2.40
2022-11-08T15:18:28.225Z,3.03
2022-11-08T15:20:58.247Z,2.23
2022-11-08T15:23:35.727Z,2.63
2022-11-08T15:26:03.749Z,2.60
2022-11-08T15:28:34.067Z,3.10
2022-11-08T15:31:04.946Z,2.50
2022-11-08T15:33:36.788Z,2.30
2022-11-08T15:36:12.308Z,2.70
2022-11-08T15:38:43.177Z,2.97
2022-11-08T15:41:32.909Z,3.37
2022-11-08T15:44:23.017Z,3.13
2022-11-08T15:46:51.655Z,3.13
2022-11-08T15:49:21.827Z,3.00
2022-11-08T15:51:50.959Z,2.90
2022-11-08T15:54:21.397Z,2.43
2022-11-08T15:56:50.609Z,2.30
2022-11-08T15:59:21.713Z,2.20
2022-11-08T16:01:56.176Z,3.47
2022-11-08T16:04:24.844Z,2.43
2022-11-08T16:06:53.006Z,2.63
2022-11-08T16:09:23.697Z,2.33
2022-11-08T16:11:52.025Z,2.30
2022-11-08T16:14:22.137Z,2.23
2022-11-08T16:16:50.618Z,2.70
2022-11-08T16:19:20.836Z,3.23
2022-11-08T16:21:48.899Z,2.10
2022-11-08T16:24:17.184Z,2.50
2022-11-08T16:26:47.855Z,2.83
2022-11-08T16:29:23.790Z,2.03
2022-11-08T16:31:52.571Z,2.63
2022-11-08T16:34:20.989Z,3.23
2022-11-08T16:36:50.845Z,3.13
2022-11-08T16:39:22.325Z,2.90
2022-11-08T16:41:51.749Z,3.10
2022-11-08T16:44:19.967Z,2.33
2022-11-08T16:46:48.204Z,2.50
2022-11-08T16:49:22.306Z,2.43
2022-11-08T16:51:50.630Z,3.37
2022-11-08T16:54:20.772Z,2.97
2022-11-08T16:56:48.839Z,2.03
2022-11-08T16:59:18.413Z,2.93
2022-11-08T17:01:47.172Z,2.03
2022-11-08T17:04:15.500Z,2.80
2022-11-08T17:06:43.950Z,2.77
2022-11-08T17:09:12.071Z,2.80
2022-11-08T17:11:40.855Z,3.50
2022-11-08T17:14:09.004Z,2.47
2022-11-08T17:16:38.479Z,2.97
2022-11-08T17:19:06.484Z,2.00
2022-11-08T17:21:49.856Z,2.90
2022-11-08T17:24:21.903Z,3.10
2022-11-08T17:26:51.199Z,2.60
2022-11-08T17:29:19.293Z,2.70
2022-11-08T17:31:49.269Z,4.63
2022-11-08T17:34:17.374Z,2.70
2022-11-08T17:36:45.450Z,3.10
2022-11-08T17:39:14.427Z,3.30
2022-11-08T17:41:42.579Z,7.60
2022-11-08T17:44:10.655Z,5.37
2022-11-08T17:46:38.739Z,3.20
2022-11-08T17:49:08.384Z,2.57
2022-11-08T17:51:36.731Z,2.50
2022-11-08T17:54:05.008Z,2.53
2022-11-08T17:56:33.098Z,2.93
2022-11-08T17:59:01.079Z,2.30
2022-11-08T18:01:31.264Z,3.90
2022-11-08T18:03:59.547Z,3.47
2022-11-08T18:06:29.060Z,2.95
2022-11-08T18:08:57.986Z,2.30
2022-11-08T18:11:26.130Z,3.03
2022-11-08T18:13:54.211Z,5.27
2022-11-08T18:16:23.154Z,4.77
2022-11-08T18:18:51.869Z,3.30
2022-11-08T18:21:20.752Z,4.77
2022-11-08T18:23:50.823Z,3.20
2022-11-08T18:26:19.780Z,5.30
2022-11-08T18:28:47.895Z,4.60
2022-11-08T18:31:18.309Z,3.60
2022-11-08T18:33:46.847Z,4.00
2022-11-08T18:36:17.989Z,3.77
2022-11-08T18:38:46.288Z,3.90
2022-11-08T18:41:17.624Z,4.30
2022-11-08T18:43:46.114Z,5.57
2022-11-08T18:46:15.572Z,4.83
2022-11-08T18:48:44.025Z,4.40
2022-11-08T18:51:14.226Z,5.27
2022-11-08T18:53:42.939Z,3.30
2022-11-08T18:56:12.027Z,4.53
2022-11-08T18:58:41.426Z,4.10
2022-11-08T19:01:09.457Z,3.90
2022-11-08T19:03:37.684Z,3.20
2022-11-08T19:06:06.558Z,3.30
2022-11-08T19:08:36.617Z,3.00
2022-11-08T19:11:07.889Z,3.70
2022-11-08T19:13:37.941Z,3.57
2022-11-08T19:16:09.054Z,3.40
2022-11-08T19:18:37.873Z,4.80
2022-11-08T19:21:07.936Z,3.30
2022-11-08T19:23:36.377Z,2.43
2022-11-08T19:26:06.561Z,5.30
2022-11-08T19:28:38.325Z,7.10
2022-11-08T19:31:08.831Z,14.50
2022-11-08T19:33:37.684Z,20.70
2022-11-08T19:36:08.399Z,9.13
2022-11-08T19:38:37.599Z,4.93
2022-11-08T19:41:07.121Z,3.90
2022-11-08T19:43:35.443Z,4.07
2022-11-08T19:46:05.535Z,6.07
2022-11-08T19:48:37.926Z,4.20
2022-11-08T19:51:08.010Z,3.20
2022-11-08T19:53:36.254Z,2.90
2022-11-08T19:56:06.085Z,3.50
2022-11-08T19:58:35.204Z,3.20
2022-11-08T20:01:08.182Z,4.23
2022-11-08T20:03:37.747Z,2.37
2022-11-08T20:06:06.569Z,4.13
2022-11-08T20:08:35.090Z,3.60
2022-11-08T20:11:10.814Z,4.33
2022-11-08T20:13:38.831Z,3.20
2022-11-08T20:16:14.459Z,5.20
2022-11-08T20:18:44.393Z,3.57
2022-11-08T20:21:15.556Z,3.03
2022-11-08T20:23:44.474Z,4.03
2022-11-08T20:26:16.400Z,3.60
2022-11-08T20:28:55.191Z,3.83
2022-11-08T20:31:24.124Z,4.13
2022-11-08T20:33:54.586Z,3.80
2022-11-08T20:36:25.309Z,3.43
2022-11-08T20:38:58.346Z,3.33
2022-11-08T20:41:30.107Z,4.50
2022-11-08T20:43:58.199Z,3.10
2022-11-08T20:46:26.207Z,3.07
2022-11-08T20:49:01.043Z,4.37
2022-11-08T20:51:30.528Z,9.13
2022-11-08T20:53:59.436Z,6.00
2022-11-08T20:56:28.963Z,3.93
2022-11-08T20:58:57.667Z,5.23
2022-11-08T21:01:27.979Z,4.50
2022-11-08T21:04:00.854Z,3.17
2022-11-08T21:06:33.014Z,4.10
2022-11-08T21:09:23.343Z,4.47
2022-11-08T21:11:51.994Z,4.07
2022-11-08T21:14:20.180Z,3.27
2022-11-08T21:17:19.583Z,3.90
2022-11-08T21:19:37.558Z,3.33
2022-11-08T21:22:17.957Z,3.13
2022-11-08T21:24:47.322Z,2.83
2022-11-08T21:27:15.871Z,3.20
2022-11-08T21:29:43.942Z,3.30
2022-11-08T21:32:14.092Z,2.63
2022-11-08T21:34:46.165Z,3.23
2022-11-08T21:37:14.809Z,3.07
2022-11-08T21:39:42.913Z,3.10
2022-11-08T21:42:10.948Z,3.20
2022-11-08T21:44:39.503Z,3.27
2022-11-08T21:47:07.672Z,3.47
2022-11-08T21:49:35.740Z,3.43
2022-11-08T21:52:05.491Z,2.40
2022-11-08T21:54:34.527Z,2.50
2022-11-08T21:57:03.775Z,2.13
2022-11-08T21:59:31.746Z,1.90
2022-11-08T22:01:59.701Z,2.23
2022-11-08T22:04:27.709Z,2.30
2022-11-08T22:06:55.760Z,3.03
2022-11-08T22:09:25.119Z,2.53
2022-11-08T22:11:53.104Z,4.07
2022-11-08T22:14:21.131Z,3.00
2022-11-08T22:16:49.057Z,2.57
2022-11-08T22:19:17.043Z,3.37
2022-11-08T22:21:46.181Z,2.80
2022-11-08T22:24:17.162Z,3.13
2022-11-08T22:26:47.272Z,2.73
2022-11-08T22:29:15.685Z,3.77
2022-11-08T22:31:44.101Z,2.40
2022-11-08T22:34:12.954Z,2.50
2022-11-08T22:36:45.191Z,2.20
2022-11-08T22:39:14.364Z,3.07
2022-11-08T22:41:42.474Z,2.33
2022-11-08T22:44:12.925Z,2.53
2022-11-08T22:46:41.581Z,3.53
2022-11-08T22:49:09.849Z,2.77
2022-11-08T22:51:38.079Z,1.60
2022-11-08T22:54:06.509Z,2.30
2022-11-08T22:56:35.244Z,1.90
2022-11-08T22:59:03.616Z,2.47
2022-11-08T23:01:33.343Z,2.80
2022-11-08T23:04:01.475Z,2.33
2022-11-08T23:06:29.515Z,3.23
2022-11-08T23:08:57.499Z,2.13
2022-11-08T23:11:43.164Z,8.03
2022-11-08T23:14:33.968Z,2.43
2022-11-08T23:17:08.102Z,1.80
2022-11-08T23:19:53.594Z,3.03
2022-11-08T23:22:39.475Z,2.47
2022-11-08T23:25:08.234Z,2.87
2022-11-08T23:27:53.728Z,3.67
2022-11-08T23:30:39.370Z,2.73
2022-11-08T23:33:08.791Z,2.97
2022-11-08T23:35:36.943Z,3.23
2022-11-08T23:38:04.964Z,3.27
2022-11-08T23:40:50.575Z,2.37
2022-11-08T23:43:38.169Z,3.20
2022-11-08T23:46:07.928Z,3.00
2022-11-08T23:48:38.220Z,2.90
2022-11-08T23:51:07.248Z,4.20
2022-11-08T23:53:37.367Z,2.80
2022-11-08T23:56:06.011Z,2.47
2022-11-08T23:58:34.682Z,3.70
